createdAt,value
2023-04-08T00:00:40.625Z,1021.89
2023-04-08T00:04:37.056Z,1021.93
2023-04-08T00:08:35.018Z,1021.84
2023-04-08T00:12:35.185Z,1021.87
2023-04-08T00:16:35.355Z,1021.93
2023-04-08T00:20:35.302Z,1021.94
2023-04-08T00:24:35.460Z,1021.86
2023-04-08T00:28:35.737Z,1021.97
2023-04-08T00:32:35.883Z,1021.9
2023-04-08T00:36:35.963Z,1021.91
2023-04-08T00:40:35.182Z,1021.86
2023-04-08T00:44:35.161Z,1021.93
2023-04-08T00:48:35.467Z,1021.96
2023-04-08T00:52:35.572Z,1021.95
2023-04-08T00:56:35.828Z,1021.95
2023-04-08T01:00:38.525Z,1022
2023-04-08T01:04:36.307Z,1021.92
2023-04-08T01:08:35.837Z,1022.01
2023-04-08T01:12:34.982Z,1021.94
2023-04-08T01:16:35.617Z,1021.93
2023-04-08T01:20:35.614Z,1022.15
2023-04-08T01:24:35.737Z,1022.18
2023-04-08T01:28:35.830Z,1022.01
2023-04-08T01:32:35.915Z,1022.02
2023-04-08T01:36:35.876Z,1021.87
2023-04-08T01:40:35.070Z,1021.98
2023-04-08T01:44:35.336Z,1022
2023-04-08T01:48:35.637Z,1022.08
2023-04-08T01:52:35.526Z,1021.97
2023-04-08T01:56:35.634Z,1022.09
2023-04-08T02:00:40.042Z,1022.13
2023-04-08T02:04:35.831Z,1022.07
2023-04-08T02:08:35.217Z,1022.19
2023-04-08T02:12:35.415Z,1022.13
2023-04-08T02:16:35.766Z,1022.03
2023-04-08T02:20:35.737Z,1022.09
2023-04-08T02:24:37.683Z,1022.2
2023-04-08T02:28:35.856Z,1022.12
2023-04-08T02:32:36.189Z,1022.02
2023-04-08T02:36:35.211Z,1022.08
2023-04-08T02:40:35.299Z,1022.21
2023-04-08T02:44:35.570Z,1022.18
2023-04-08T02:48:35.929Z,1022.19
2023-04-08T02:52:35.881Z,1022.24
2023-04-08T02:56:36.041Z,1022.29
2023-04-08T03:00:39.972Z,1022.26
2023-04-08T03:04:35.811Z,1022.35
2023-04-08T03:08:35.867Z,1022.36
2023-04-08T03:12:35.945Z,1022.42
2023-04-08T03:16:36.085Z,1022.44
2023-04-08T03:20:35.154Z,1022.47
2023-04-08T03:24:35.205Z,1022.4
2023-04-08T03:28:36.075Z,1022.36
2023-04-08T03:32:36.047Z,1022.39
2023-04-08T03:36:35.413Z,1022.4
2023-04-08T03:40:35.369Z,1022.48
2023-04-08T03:44:35.552Z,1022.49
2023-04-08T03:48:35.922Z,1022.41
2023-04-08T03:52:35.867Z,1022.43
2023-04-08T03:56:35.958Z,1022.55
2023-04-08T04:00:38.594Z,1022.6
2023-04-08T04:04:36.731Z,1022.61
2023-04-08T04:08:35.899Z,1022.62
2023-04-08T04:12:35.093Z,1022.63
2023-04-08T04:16:35.638Z,1022.68
2023-04-08T04:20:35.323Z,1022.77
2023-04-08T04:24:35.819Z,1022.78
2023-04-08T04:28:35.041Z,1022.8
2023-04-08T04:32:35.527Z,1022.9
2023-04-08T04:36:35.831Z,1022.91
2023-04-08T04:40:35.805Z,1022.97
2023-04-08T04:44:35.903Z,1023.02
2023-04-08T04:48:35.135Z,1022.99
2023-04-08T04:52:35.230Z,1023.06
2023-04-08T04:56:35.821Z,1023.07
2023-04-08T05:00:39.666Z,1023.04
2023-04-08T05:04:35.381Z,1023.03
2023-04-08T05:08:38.606Z,1023.17
2023-04-08T05:12:35.539Z,1023.15
2023-04-08T05:16:35.903Z,1023.2
2023-04-08T05:20:39.818Z,1023.25
2023-04-08T05:24:35.476Z,1023.23
2023-04-08T05:28:35.242Z,1023.29
2023-04-08T05:32:35.653Z,1023.33
2023-04-08T05:36:35.840Z,1023.37
2023-04-08T05:40:35.923Z,1023.42
2023-04-08T05:44:35.090Z,1023.41
2023-04-08T05:48:35.216Z,1023.66
2023-04-08T05:52:35.170Z,1023.59
2023-04-08T05:56:35.422Z,1023.66
2023-04-08T06:00:42.064Z,1023.64
2023-04-08T06:04:36.497Z,1023.76
2023-04-08T06:08:35.160Z,1023.71
2023-04-08T06:12:35.080Z,1023.75
2023-04-08T06:16:35.587Z,1023.84
2023-04-08T06:20:35.424Z,1023.87
2023-04-08T06:24:35.686Z,1023.9
2023-04-08T06:28:35.811Z,1023.9
2023-04-08T06:32:36.143Z,1023.86
2023-04-08T06:36:35.330Z,1023.97
2023-04-08T06:40:35.219Z,1023.93
2023-04-08T06:44:35.285Z,1023.98
2023-04-08T06:48:35.439Z,1023.84
2023-04-08T06:52:37.624Z,1024.08
2023-04-08T06:56:35.627Z,1024.18
2023-04-08T07:00:41.769Z,1024.21
2023-04-08T07:04:35.940Z,1024.36
2023-04-08T07:08:36.050Z,1024.3
2023-04-08T07:12:34.993Z,1024.48
2023-04-08T07:16:35.369Z,1024.45
2023-04-08T07:20:35.202Z,1024.4
2023-04-08T07:24:35.680Z,1024.51
2023-04-08T07:28:35.791Z,1024.48
2023-04-08T07:32:35.960Z,1024.57
2023-04-08T07:36:35.988Z,1024.54
2023-04-08T07:40:36.064Z,1024.49
2023-04-08T07:44:35.164Z,1024.55
2023-04-08T07:48:35.343Z,1024.62
2023-04-08T07:52:35.300Z,1024.72
2023-04-08T07:56:36.115Z,1024.71
2023-04-08T08:00:38.459Z,1024.63
2023-04-08T08:04:36.445Z,1024.8
2023-04-08T08:08:35.671Z,1024.67
2023-04-08T08:12:35.651Z,1024.7
2023-04-08T08:16:36.469Z,1024.83
2023-04-08T08:20:35.993Z,1024.74
2023-04-08T08:24:35.950Z,1024.9
2023-04-08T08:28:35.885Z,1024.84
2023-04-08T08:32:35.928Z,1024.9
2023-04-08T08:36:35.863Z,1024.97
2023-04-08T08:40:35.252Z,1024.98
2023-04-08T08:44:35.335Z,1025.1
2023-04-08T08:48:35.642Z,1025.1
2023-04-08T08:52:35.858Z,1025.01
2023-04-08T08:56:51.933Z,1025.12
2023-04-08T09:00:41.906Z,1025.07
2023-04-08T09:04:36.258Z,1025.08
2023-04-08T09:08:35.642Z,1024.97
2023-04-08T09:12:35.023Z,1024.96
2023-04-08T09:16:35.670Z,1024.93
2023-04-08T09:20:35.659Z,1024.85
2023-04-08T09:24:35.723Z,1025.04
2023-04-08T09:28:35.874Z,1025.01
2023-04-08T09:32:36.054Z,1025.06
2023-04-08T09:36:35.304Z,1025.04
2023-04-08T09:40:36.677Z,1025.12
2023-04-08T09:44:35.802Z,1025.12
2023-04-08T09:48:38.756Z,1025.14
2023-04-08T09:52:35.056Z,1025.07
2023-04-08T09:56:35.319Z,1025.03
2023-04-08T10:00:38.105Z,1025.07
2023-04-08T10:04:36.172Z,1025.07
2023-04-08T10:08:35.903Z,1025.08
2023-04-08T10:12:35.278Z,1025.16
2023-04-08T10:16:35.308Z,1025.13
2023-04-08T10:20:35.412Z,1025.05
2023-04-08T10:24:35.485Z,1025.05
2023-04-08T10:28:35.669Z,1025.06
2023-04-08T10:32:35.914Z,1024.99
2023-04-08T10:36:35.587Z,1025.04
2023-04-08T10:40:35.713Z,1024.92
2023-04-08T10:44:36.002Z,1024.97
2023-04-08T10:48:35.158Z,1024.92
2023-04-08T10:52:35.259Z,1025.05
2023-04-08T10:56:36.141Z,1024.9
2023-04-08T11:00:39.824Z,1025.04
2023-04-08T11:04:35.844Z,1025.02
2023-04-08T11:08:35.334Z,1024.98
2023-04-08T11:12:35.467Z,1024.97
2023-04-08T11:16:41.506Z,1025.06
2023-04-08T11:20:35.705Z,1024.87
2023-04-08T11:24:35.568Z,1024.95
2023-04-08T11:28:35.703Z,1024.97
2023-04-08T11:32:35.793Z,1024.98
2023-04-08T11:36:35.510Z,1024.98
2023-04-08T11:40:35.363Z,1024.91
2023-04-08T11:44:35.375Z,1024.91
2023-04-08T11:48:38.650Z,1024.94
2023-04-08T11:52:35.373Z,1024.94
2023-04-08T11:56:35.391Z,1024.95
2023-04-08T12:00:37.528Z,1025.02
2023-04-08T12:04:36.389Z,1024.88
2023-04-08T12:08:35.711Z,1024.93
2023-04-08T12:12:35.915Z,1024.85
2023-04-08T12:16:35.483Z,1024.99
2023-04-08T12:20:35.165Z,1024.82
2023-04-08T12:24:35.255Z,1024.88
2023-04-08T12:28:35.227Z,1024.84
2023-04-08T12:32:35.504Z,1024.74
2023-04-08T12:36:36.702Z,1024.95
2023-04-08T12:40:35.814Z,1024.91
2023-04-08T12:44:35.972Z,1024.79
2023-04-08T12:48:36.646Z,1024.82
2023-04-08T12:52:35.064Z,1024.81
2023-04-08T12:56:35.372Z,1024.77
2023-04-08T13:00:39.110Z,1024.82
2023-04-08T13:04:35.410Z,1024.89
2023-04-08T13:08:35.193Z,1024.88
2023-04-08T13:12:35.603Z,1024.82
2023-04-08T13:16:35.960Z,1024.9
2023-04-08T13:20:35.700Z,1024.77
2023-04-08T13:24:35.940Z,1024.88
2023-04-08T13:28:55.943Z,1024.81
2023-04-08T13:32:36.079Z,1024.8
2023-04-08T13:36:36.018Z,1024.79
2023-04-08T13:40:36.027Z,1024.61
2023-04-08T13:44:35.183Z,1024.78
2023-04-08T13:48:35.593Z,1024.68
2023-04-08T13:52:35.418Z,1024.67
2023-04-08T13:56:35.637Z,1024.63
2023-04-08T14:00:38.878Z,1024.6
2023-04-08T14:04:36.241Z,1024.5
2023-04-08T14:08:35.257Z,1024.52
2023-04-08T14:12:35.223Z,1024.46
2023-04-08T14:16:35.278Z,1024.46
2023-04-08T14:20:35.462Z,1024.54
2023-04-08T14:24:36.721Z,1024.55
2023-04-08T14:28:35.745Z,1024.52
2023-04-08T14:32:35.946Z,1024.66
2023-04-08T14:36:35.912Z,1024.66
2023-04-08T14:40:37.606Z,1024.63
2023-04-08T14:44:35.047Z,1024.63
2023-04-08T14:48:35.307Z,1024.7
2023-04-08T14:52:35.397Z,1024.52
2023-04-08T14:56:35.453Z,1024.55
2023-04-08T15:00:38.548Z,1024.54
2023-04-08T15:04:36.242Z,1024.53
2023-04-08T15:08:35.173Z,1024.52
2023-04-08T15:12:36.311Z,1024.59
2023-04-08T15:16:35.609Z,1024.54
2023-04-08T15:20:35.572Z,1024.65
2023-04-08T15:24:35.709Z,1024.68
2023-04-08T15:28:35.432Z,1024.58
2023-04-08T15:32:35.461Z,1024.57
2023-04-08T15:36:35.747Z,1024.67
2023-04-08T15:40:35.625Z,1024.6
2023-04-08T15:44:35.639Z,1024.58
2023-04-08T15:48:35.851Z,1024.66
2023-04-08T15:52:35.855Z,1024.61
2023-04-08T15:56:35.781Z,1024.65
2023-04-08T16:00:39.359Z,1024.68
2023-04-08T16:04:36.107Z,1024.69
2023-04-08T16:08:35.650Z,1024.64
2023-04-08T16:12:35.747Z,1024.62
2023-04-08T16:16:36.266Z,1024.62
2023-04-08T16:20:35.697Z,1024.57
2023-04-08T16:24:35.980Z,1024.58
2023-04-08T16:28:35.970Z,1024.58
2023-04-08T16:32:35.804Z,1024.57
2023-04-08T16:36:35.839Z,1024.61
2023-04-08T16:40:35.084Z,1024.56
2023-04-08T16:44:35.384Z,1024.54
2023-04-08T16:48:35.398Z,1024.67
2023-04-08T16:52:35.619Z,1024.65
2023-04-08T16:56:35.870Z,1024.66
2023-04-08T17:00:42.300Z,1024.63
2023-04-08T17:04:35.422Z,1024.69
2023-04-08T17:08:35.165Z,1024.61
2023-04-08T17:12:35.277Z,1024.68
2023-04-08T17:16:35.257Z,1024.67
2023-04-08T17:20:35.241Z,1024.66
2023-04-08T17:24:35.754Z,1024.67
2023-04-08T17:28:35.610Z,1024.74
2023-04-08T17:32:35.646Z,1024.64
2023-04-08T17:36:35.936Z,1024.6
2023-04-08T17:40:35.805Z,1024.64
2023-04-08T17:44:35.772Z,1024.64
2023-04-08T17:48:35.053Z,1024.68
2023-04-08T17:52:35.117Z,1024.67
2023-04-08T17:56:35.257Z,1024.74
2023-04-08T18:00:43.121Z,1024.65
2023-04-08T18:04:36.560Z,1024.67
2023-04-08T18:08:35.811Z,1024.75
2023-04-08T18:12:35.154Z,1024.77
2023-04-08T18:16:35.201Z,1024.82
2023-04-08T18:20:35.096Z,1024.79
2023-04-08T18:24:35.532Z,1024.82
2023-04-08T18:28:35.698Z,1024.91
2023-04-08T18:32:35.948Z,1024.99
2023-04-08T18:36:36.100Z,1024.97
2023-04-08T18:40:35.110Z,1024.99
2023-04-08T18:44:35.386Z,1024.99
2023-04-08T18:48:35.525Z,1025
2023-04-08T18:52:37.297Z,1025.13
2023-04-08T18:56:35.497Z,1025.13
2023-04-08T19:00:38.522Z,1025.13
2023-04-08T19:04:36.147Z,1025.16
2023-04-08T19:08:35.901Z,1025.19
2023-04-08T19:12:35.809Z,1025.27
2023-04-08T19:16:36.004Z,1025.21
2023-04-08T19:20:35.929Z,1025.16
2023-04-08T19:24:35.835Z,1025.33
2023-04-08T19:28:35.797Z,1025.28
2023-04-08T19:32:35.812Z,1025.35
2023-04-08T19:36:35.683Z,1025.36
2023-04-08T19:40:35.903Z,1025.38
2023-04-08T19:44:35.677Z,1025.34
2023-04-08T19:48:35.846Z,1025.41
2023-04-08T19:52:35.757Z,1025.34
2023-04-08T19:56:35.697Z,1025.43
2023-04-08T20:00:39.795Z,1025.31
2023-04-08T20:04:36.404Z,1025.41
2023-04-08T20:08:35.820Z,1025.41
2023-04-08T20:12:35.610Z,1025.4
2023-04-08T20:16:35.940Z,1025.38
2023-04-08T20:20:35.837Z,1025.46
2023-04-08T20:24:35.971Z,1025.41
2023-04-08T20:28:35.722Z,1025.49
2023-04-08T20:32:35.808Z,1025.56
2023-04-08T20:36:35.873Z,1025.53
2023-04-08T20:40:35.830Z,1025.59
2023-04-08T20:44:35.770Z,1025.44
2023-04-08T20:48:35.849Z,1025.51
2023-04-08T20:52:35.899Z,1025.46
2023-04-08T20:56:35.642Z,1025.5
2023-04-08T21:00:38.705Z,1025.41
2023-04-08T21:04:35.072Z,1025.49
2023-04-08T21:08:35.111Z,1025.4
2023-04-08T21:12:35.567Z,1025.38
2023-04-08T21:16:35.770Z,1025.42
2023-04-08T21:20:35.492Z,1025.4
2023-04-08T21:24:35.758Z,1025.44
2023-04-08T21:28:35.862Z,1025.47
2023-04-08T21:32:36.046Z,1025.37
2023-04-08T21:36:35.977Z,1025.42
2023-04-08T21:40:35.994Z,1025.39
2023-04-08T21:44:35.323Z,1025.38
2023-04-08T21:48:35.261Z,1025.29
2023-04-08T21:52:35.292Z,1025.31
2023-04-08T21:56:35.236Z,1025.34
2023-04-08T22:00:36.059Z,1025.33
2023-04-08T22:04:35.574Z,1025.24
2023-04-08T22:08:35.483Z,1025.32
2023-04-08T22:12:35.676Z,1025.3
2023-04-08T22:16:35.144Z,1025.33
2023-04-08T22:20:35.982Z,1025.36
2023-04-08T22:24:34.987Z,1025.44
2023-04-08T22:28:35.539Z,1025.44
2023-04-08T22:32:35.663Z,1025.39
2023-04-08T22:36:35.939Z,1025.33
2023-04-08T22:40:36.059Z,1025.3
2023-04-08T22:44:35.115Z,1025.28
2023-04-08T22:48:35.328Z,1025.38
2023-04-08T22:52:35.424Z,1025.31
2023-04-08T22:56:35.772Z,1025.32
2023-04-08T23:00:38.212Z,1025.24
2023-04-08T23:04:35.592Z,1025.31
2023-04-08T23:08:35.578Z,1025.27
2023-04-08T23:12:35.469Z,1025.15
2023-04-08T23:16:36.331Z,1025.12
2023-04-08T23:20:36.356Z,1025.11
2023-04-08T23:24:35.220Z,1025.08
2023-04-08T23:28:35.375Z,1025.03
2023-04-08T23:32:35.578Z,1024.96
2023-04-08T23:36:35.792Z,1025.02
2023-04-08T23:40:35.634Z,1024.97
2023-04-08T23:44:35.828Z,1024.86
2023-04-08T23:48:35.913Z,1024.94
2023-04-08T23:52:35.699Z,1024.9
2023-04-08T23:56:35.869Z,1024.74
